sensor_id;sensor_type;location;lat;lon;timestamp;P1;durP1;ratioP1;P2;durP2;ratioP2
47309;SDS011;33046;52.270;6.832;2023-07-31T00:01:30;1.70;;;0.80;;
47309;SDS011;33046;52.270;6.832;2023-07-31T00:03:37;2.40;;;1.10;;
47309;SDS011;33046;52.270;6.832;2023-07-31T00:05:44;0.52;;;0.50;;
47309;SDS011;33046;52.270;6.832;2023-07-31T00:07:50;1.60;;;0.80;;
47309;SDS011;33046;52.270;6.832;2023-07-31T00:09:57;1.10;;;0.70;;
47309;SDS011;33046;52.270;6.832;2023-07-31T00:12:04;1.77;;;0.70;;
47309;SDS011;33046;52.270;6.832;2023-07-31T00:14:13;1.85;;;0.70;;
47309;SDS011;33046;52.270;6.832;2023-07-31T00:16:20;1.20;;;0.70;;
47309;SDS011;33046;52.270;6.832;2023-07-31T00:18:27;2.88;;;0.70;;
47309;SDS011;33046;52.270;6.832;2023-07-31T00:20:34;1.17;;;0.80;;
47309;SDS011;33046;52.270;6.832;2023-07-31T00:22:41;1.08;;;0.73;;
47309;SDS011;33046;52.270;6.832;2023-07-31T00:24:48;1.67;;;0.70;;
47309;SDS011;33046;52.270;6.832;2023-07-31T00:26:55;0.88;;;0.60;;
47309;SDS011;33046;52.270;6.832;2023-07-31T00:29:01;0.98;;;0.68;;
47309;SDS011;33046;52.270;6.832;2023-07-31T00:31:10;2.00;;;1.00;;
47309;SDS011;33046;52.270;6.832;2023-07-31T00:33:17;1.20;;;0.60;;
47309;SDS011;33046;52.270;6.832;2023-07-31T00:35:24;1.25;;;0.60;;
47309;SDS011;33046;52.270;6.832;2023-07-31T00:37:31;1.08;;;0.77;;
47309;SDS011;33046;52.270;6.832;2023-07-31T00:39:38;1.20;;;0.70;;
47309;SDS011;33046;52.270;6.832;2023-07-31T00:41:45;1.02;;;0.70;;
47309;SDS011;33046;52.270;6.832;2023-07-31T00:43:52;1.60;;;1.00;;
47309;SDS011;33046;52.270;6.832;2023-07-31T00:45:59;1.08;;;0.80;;
47309;SDS011;33046;52.270;6.832;2023-07-31T00:48:07;1.15;;;0.77;;
47309;SDS011;33046;52.270;6.832;2023-07-31T00:50:14;1.65;;;1.25;;
47309;SDS011;33046;52.270;6.832;2023-07-31T00:52:21;3.35;;;0.80;;
47309;SDS011;33046;52.270;6.832;2023-07-31T00:54:28;0.82;;;0.68;;
47309;SDS011;33046;52.270;6.832;2023-07-31T00:56:35;0.90;;;0.60;;
47309;SDS011;33046;52.270;6.832;2023-07-31T00:58:42;1.75;;;0.60;;
47309;SDS011;33046;52.270;6.832;2023-07-31T01:00:49;0.85;;;0.77;;
47309;SDS011;33046;52.270;6.832;2023-07-31T01:02:56;0.80;;;0.50;;
47309;SDS011;33046;52.270;6.832;2023-07-31T01:05:05;0.77;;;0.50;;
47309;SDS011;33046;52.270;6.832;2023-07-31T01:07:14;0.88;;;0.40;;
47309;SDS011;33046;52.270;6.832;2023-07-31T01:09:29;0.63;;;0.30;;
47309;SDS011;33046;52.270;6.832;2023-07-31T01:11:43;0.50;;;0.40;;
47309;SDS011;33046;52.270;6.832;2023-07-31T01:13:54;3.40;;;1.48;;
47309;SDS011;33046;52.270;6.832;2023-07-31T01:16:01;0.30;;;0.20;;
47309;SDS011;33046;52.270;6.832;2023-07-31T01:18:08;2.10;;;0.57;;
47309;SDS011;33046;52.270;6.832;2023-07-31T01:20:18;0.55;;;0.35;;
47309;SDS011;33046;52.270;6.832;2023-07-31T01:22:36;1.00;;;0.40;;
47309;SDS011;33046;52.270;6.832;2023-07-31T01:24:55;0.38;;;0.28;;
47309;SDS011;33046;52.270;6.832;2023-07-31T01:27:12;0.40;;;0.28;;
47309;SDS011;33046;52.270;6.832;2023-07-31T01:31:35;0.93;;;0.40;;
47309;SDS011;33046;52.270;6.832;2023-07-31T01:33:45;0.93;;;0.30;;
47309;SDS011;33046;52.270;6.832;2023-07-31T01:35:53;0.68;;;0.43;;
47309;SDS011;33046;52.270;6.832;2023-07-31T01:38:00;0.82;;;0.43;;
47309;SDS011;33046;52.270;6.832;2023-07-31T01:40:09;0.47;;;0.30;;
47309;SDS011;33046;52.270;6.832;2023-07-31T01:42:17;0.50;;;0.22;;
47309;SDS011;33046;52.270;6.832;2023-07-31T01:44:24;2.28;;;0.20;;
47309;SDS011;33046;52.270;6.832;2023-07-31T01:46:31;0.85;;;0.20;;
47309;SDS011;33046;52.270;6.832;2023-07-31T01:48:38;3.05;;;0.20;;
47309;SDS011;33046;52.270;6.832;2023-07-31T01:50:45;1.20;;;0.30;;
47309;SDS011;33046;52.270;6.832;2023-07-31T01:52:52;0.73;;;0.20;;
47309;SDS011;33046;52.270;6.832;2023-07-31T01:54:59;0.52;;;0.20;;
47309;SDS011;33046;52.270;6.832;2023-07-31T01:57:06;0.13;;;0.10;;
47309;SDS011;33046;52.270;6.832;2023-07-31T01:59:14;0.13;;;0.13;;
47309;SDS011;33046;52.270;6.832;2023-07-31T02:01:21;0.20;;;0.15;;
47309;SDS011;33046;52.270;6.832;2023-07-31T02:03:28;1.25;;;0.20;;
47309;SDS011;33046;52.270;6.832;2023-07-31T02:05:35;0.95;;;0.30;;
47309;SDS011;33046;52.270;6.832;2023-07-31T02:07:42;1.80;;;0.40;;
47309;SDS011;33046;52.270;6.832;2023-07-31T02:09:48;0.65;;;0.40;;
47309;SDS011;33046;52.270;6.832;2023-07-31T02:11:55;0.63;;;0.20;;
47309;SDS011;33046;52.270;6.832;2023-07-31T02:14:03;0.30;;;0.20;;
47309;SDS011;33046;52.270;6.832;2023-07-31T02:16:12;1.83;;;0.40;;
47309;SDS011;33046;52.270;6.832;2023-07-31T02:18:18;0.77;;;0.30;;
47309;SDS011;33046;52.270;6.832;2023-07-31T02:20:25;1.80;;;0.20;;
47309;SDS011;33046;52.270;6.832;2023-07-31T02:22:32;2.17;;;0.30;;
47309;SDS011;33046;52.270;6.832;2023-07-31T02:24:39;1.55;;;0.30;;
47309;SDS011;33046;52.270;6.832;2023-07-31T02:26:46;1.45;;;0.50;;
47309;SDS011;33046;52.270;6.832;2023-07-31T02:28:53;0.82;;;0.30;;
47309;SDS011;33046;52.270;6.832;2023-07-31T02:31:00;0.20;;;0.20;;
47309;SDS011;33046;52.270;6.832;2023-07-31T02:33:08;1.52;;;0.30;;
47309;SDS011;33046;52.270;6.832;2023-07-31T02:35:15;0.35;;;0.20;;
47309;SDS011;33046;52.270;6.832;2023-07-31T02:37:22;2.20;;;0.60;;
47309;SDS011;33046;52.270;6.832;2023-07-31T02:39:29;2.60;;;0.82;;
47309;SDS011;33046;52.270;6.832;2023-07-31T02:41:36;2.83;;;1.05;;
47309;SDS011;33046;52.270;6.832;2023-07-31T02:43:43;1.92;;;1.30;;
47309;SDS011;33046;52.270;6.832;2023-07-31T02:45:50;4.88;;;1.70;;
47309;SDS011;33046;52.270;6.832;2023-07-31T02:47:58;5.32;;;2.15;;
47309;SDS011;33046;52.270;6.832;2023-07-31T02:50:07;3.60;;;2.10;;
47309;SDS011;33046;52.270;6.832;2023-07-31T02:52:14;7.03;;;2.88;;
47309;SDS011;33046;52.270;6.832;2023-07-31T02:54:21;5.13;;;2.53;;
47309;SDS011;33046;52.270;6.832;2023-07-31T02:56:28;4.47;;;2.80;;
47309;SDS011;33046;52.270;6.832;2023-07-31T02:58:35;5.10;;;2.85;;
47309;SDS011;33046;52.270;6.832;2023-07-31T03:00:42;4.65;;;2.97;;
47309;SDS011;33046;52.270;6.832;2023-07-31T03:02:49;7.25;;;2.90;;
47309;SDS011;33046;52.270;6.832;2023-07-31T03:04:56;3.28;;;1.73;;
47309;SDS011;33046;52.270;6.832;2023-07-31T03:07:05;4.53;;;2.33;;
47309;SDS011;33046;52.270;6.832;2023-07-31T03:09:12;2.50;;;1.65;;
47309;SDS011;33046;52.270;6.832;2023-07-31T03:11:19;1.92;;;1.23;;
47309;SDS011;33046;52.270;6.832;2023-07-31T03:13:25;2.40;;;1.20;;
47309;SDS011;33046;52.270;6.832;2023-07-31T03:15:32;2.17;;;1.20;;
47309;SDS011;33046;52.270;6.832;2023-07-31T03:17:39;3.35;;;1.30;;
47309;SDS011;33046;52.270;6.832;2023-07-31T03:19:46;1.63;;;0.90;;
47309;SDS011;33046;52.270;6.832;2023-07-31T03:21:53;2.08;;;1.00;;
47309;SDS011;33046;52.270;6.832;2023-07-31T03:24:02;2.50;;;1.45;;
47309;SDS011;33046;52.270;6.832;2023-07-31T03:26:09;2.10;;;1.20;;
47309;SDS011;33046;52.270;6.832;2023-07-31T03:28:16;2.42;;;1.08;;
47309;SDS011;33046;52.270;6.832;2023-07-31T03:30:23;3.13;;;1.80;;
47309;SDS011;33046;52.270;6.832;2023-07-31T03:32:29;3.05;;;1.80;;
47309;SDS011;33046;52.270;6.832;2023-07-31T03:34:36;3.90;;;1.58;;
47309;SDS011;33046;52.270;6.832;2023-07-31T03:36:44;5.55;;;1.98;;
47309;SDS011;33046;52.270;6.832;2023-07-31T03:38:52;5.20;;;1.48;;
47309;SDS011;33046;52.270;6.832;2023-07-31T03:41:00;3.40;;;2.20;;
47309;SDS011;33046;52.270;6.832;2023-07-31T03:43:07;3.25;;;2.33;;
47309;SDS011;33046;52.270;6.832;2023-07-31T03:45:14;3.17;;;1.42;;
47309;SDS011;33046;52.270;6.832;2023-07-31T03:47:21;2.78;;;1.33;;
47309;SDS011;33046;52.270;6.832;2023-07-31T03:49:28;2.63;;;1.73;;
47309;SDS011;33046;52.270;6.832;2023-07-31T03:51:34;6.57;;;3.13;;
47309;SDS011;33046;52.270;6.832;2023-07-31T03:53:41;3.95;;;2.00;;
47309;SDS011;33046;52.270;6.832;2023-07-31T03:55:49;8.55;;;3.13;;
47309;SDS011;33046;52.270;6.832;2023-07-31T03:57:57;6.95;;;3.05;;
47309;SDS011;33046;52.270;6.832;2023-07-31T04:00:05;4.93;;;2.47;;
47309;SDS011;33046;52.270;6.832;2023-07-31T04:02:17;11.20;;;3.50;;
47309;SDS011;33046;52.270;6.832;2023-07-31T04:04:24;7.93;;;3.53;;
47309;SDS011;33046;52.270;6.832;2023-07-31T04:06:31;10.15;;;4.75;;
47309;SDS011;33046;52.270;6.832;2023-07-31T04:08:38;9.18;;;3.60;;
47309;SDS011;33046;52.270;6.832;2023-07-31T04:10:45;5.90;;;3.95;;
47309;SDS011;33046;52.270;6.832;2023-07-31T04:12:51;9.48;;;5.97;;
47309;SDS011;33046;52.270;6.832;2023-07-31T04:15:00;10.40;;;4.30;;
47309;SDS011;33046;52.270;6.832;2023-07-31T04:17:06;7.97;;;3.92;;
47309;SDS011;33046;52.270;6.832;2023-07-31T04:19:14;10.85;;;5.00;;
47309;SDS011;33046;52.270;6.832;2023-07-31T04:21:21;10.48;;;4.13;;
47309;SDS011;33046;52.270;6.832;2023-07-31T04:23:28;11.90;;;4.70;;
47309;SDS011;33046;52.270;6.832;2023-07-31T04:25:35;9.50;;;4.60;;
47309;SDS011;33046;52.270;6.832;2023-07-31T04:27:42;14.02;;;5.32;;
47309;SDS011;33046;52.270;6.832;2023-07-31T04:29:49;12.85;;;5.95;;
47309;SDS011;33046;52.270;6.832;2023-07-31T04:31:57;9.23;;;5.00;;
47309;SDS011;33046;52.270;6.832;2023-07-31T04:34:04;11.88;;;5.68;;
47309;SDS011;33046;52.270;6.832;2023-07-31T04:36:10;13.60;;;5.03;;
47309;SDS011;33046;52.270;6.832;2023-07-31T04:38:17;9.30;;;6.18;;
47309;SDS011;33046;52.270;6.832;2023-07-31T04:40:24;12.25;;;6.38;;
47309;SDS011;33046;52.270;6.832;2023-07-31T04:42:31;19.00;;;7.63;;
47309;SDS011;33046;52.270;6.832;2023-07-31T04:44:38;12.38;;;5.45;;
47309;SDS011;33046;52.270;6.832;2023-07-31T04:46:45;12.55;;;6.57;;
47309;SDS011;33046;52.270;6.832;2023-07-31T04:48:53;14.77;;;6.55;;
47309;SDS011;33046;52.270;6.832;2023-07-31T04:51:00;16.25;;;6.05;;
47309;SDS011;33046;52.270;6.832;2023-07-31T04:53:07;10.75;;;5.28;;
47309;SDS011;33046;52.270;6.832;2023-07-31T04:55:14;10.65;;;5.80;;
47309;SDS011;33046;52.270;6.832;2023-07-31T04:57:21;12.77;;;5.78;;
47309;SDS011;33046;52.270;6.832;2023-07-31T04:59:28;12.55;;;5.75;;
47309;SDS011;33046;52.270;6.832;2023-07-31T05:01:34;12.10;;;4.85;;
47309;SDS011;33046;52.270;6.832;2023-07-31T05:03:41;11.35;;;4.63;;
47309;SDS011;33046;52.270;6.832;2023-07-31T05:05:49;12.05;;;5.53;;
47309;SDS011;33046;52.270;6.832;2023-07-31T05:07:56;12.38;;;6.57;;
47309;SDS011;33046;52.270;6.832;2023-07-31T05:10:03;13.27;;;5.85;;
47309;SDS011;33046;52.270;6.832;2023-07-31T05:12:11;12.30;;;5.25;;
47309;SDS011;33046;52.270;6.832;2023-07-31T05:14:18;10.90;;;5.55;;
47309;SDS011;33046;52.270;6.832;2023-07-31T05:16:24;9.98;;;5.30;;
47309;SDS011;33046;52.270;6.832;2023-07-31T05:18:31;16.08;;;6.13;;
47309;SDS011;33046;52.270;6.832;2023-07-31T05:20:38;13.80;;;5.65;;
47309;SDS011;33046;52.270;6.832;2023-07-31T05:22:46;13.75;;;6.15;;
47309;SDS011;33046;52.270;6.832;2023-07-31T05:24:53;15.15;;;5.75;;
47309;SDS011;33046;52.270;6.832;2023-07-31T05:27:00;16.25;;;7.55;;
47309;SDS011;33046;52.270;6.832;2023-07-31T05:29:07;12.48;;;5.72;;
47309;SDS011;33046;52.270;6.832;2023-07-31T05:31:14;11.55;;;5.72;;
47309;SDS011;33046;52.270;6.832;2023-07-31T05:33:21;11.93;;;5.40;;
47309;SDS011;33046;52.270;6.832;2023-07-31T05:35:28;10.68;;;6.18;;
47309;SDS011;33046;52.270;6.832;2023-07-31T05:37:35;13.93;;;5.25;;
47309;SDS011;33046;52.270;6.832;2023-07-31T05:39:43;11.77;;;5.85;;
47309;SDS011;33046;52.270;6.832;2023-07-31T05:41:50;13.90;;;6.60;;
47309;SDS011;33046;52.270;6.832;2023-07-31T05:43:57;10.77;;;5.53;;
47309;SDS011;33046;52.270;6.832;2023-07-31T05:46:04;13.10;;;5.80;;
47309;SDS011;33046;52.270;6.832;2023-07-31T05:48:11;13.10;;;6.32;;
47309;SDS011;33046;52.270;6.832;2023-07-31T05:50:18;11.40;;;6.72;;
47309;SDS011;33046;52.270;6.832;2023-07-31T05:52:25;17.90;;;6.97;;
47309;SDS011;33046;52.270;6.832;2023-07-31T05:54:32;13.68;;;6.10;;
47309;SDS011;33046;52.270;6.832;2023-07-31T05:56:40;12.95;;;4.82;;
47309;SDS011;33046;52.270;6.832;2023-07-31T05:58:47;13.82;;;5.95;;
47309;SDS011;33046;52.270;6.832;2023-07-31T06:00:54;15.38;;;6.32;;
47309;SDS011;33046;52.270;6.832;2023-07-31T06:03:01;13.02;;;6.70;;
47309;SDS011;33046;52.270;6.832;2023-07-31T06:05:08;13.63;;;5.85;;
47309;SDS011;33046;52.270;6.832;2023-07-31T06:07:15;13.05;;;4.80;;
47309;SDS011;33046;52.270;6.832;2023-07-31T06:09:22;9.90;;;4.30;;
47309;SDS011;33046;52.270;6.832;2023-07-31T06:11:29;14.23;;;5.53;;
47309;SDS011;33046;52.270;6.832;2023-07-31T06:13:37;14.52;;;6.50;;
47309;SDS011;33046;52.270;6.832;2023-07-31T06:15:44;12.57;;;5.50;;
47309;SDS011;33046;52.270;6.832;2023-07-31T06:17:51;12.68;;;5.35;;
47309;SDS011;33046;52.270;6.832;2023-07-31T06:19:58;11.07;;;4.95;;
47309;SDS011;33046;52.270;6.832;2023-07-31T06:22:05;12.02;;;5.10;;
47309;SDS011;33046;52.270;6.832;2023-07-31T06:24:12;14.15;;;5.80;;
47309;SDS011;33046;52.270;6.832;2023-07-31T06:26:19;14.02;;;6.18;;
47309;SDS011;33046;52.270;6.832;2023-07-31T06:28:27;10.13;;;5.13;;
47309;SDS011;33046;52.270;6.832;2023-07-31T06:30:35;10.13;;;5.32;;
47309;SDS011;33046;52.270;6.832;2023-07-31T06:32:42;12.88;;;5.55;;
47309;SDS011;33046;52.270;6.832;2023-07-31T06:34:49;11.95;;;4.28;;
47309;SDS011;33046;52.270;6.832;2023-07-31T06:36:56;12.35;;;4.35;;
47309;SDS011;33046;52.270;6.832;2023-07-31T06:39:03;11.05;;;5.13;;
47309;SDS011;33046;52.270;6.832;2023-07-31T06:41:10;7.25;;;4.28;;
47309;SDS011;33046;52.270;6.832;2023-07-31T06:43:16;12.68;;;5.30;;
47309;SDS011;33046;52.270;6.832;2023-07-31T06:45:23;9.35;;;4.38;;
47309;SDS011;33046;52.270;6.832;2023-07-31T06:47:32;10.38;;;4.82;;
47309;SDS011;33046;52.270;6.832;2023-07-31T06:49:38;9.82;;;5.05;;
47309;SDS011;33046;52.270;6.832;2023-07-31T06:51:45;7.30;;;3.40;;
47309;SDS011;33046;52.270;6.832;2023-07-31T06:53:52;9.60;;;4.68;;
47309;SDS011;33046;52.270;6.832;2023-07-31T06:55:59;7.63;;;4.63;;
47309;SDS011;33046;52.270;6.832;2023-07-31T06:58:06;9.23;;;3.85;;
47309;SDS011;33046;52.270;6.832;2023-07-31T07:00:13;6.80;;;2.80;;
47309;SDS011;33046;52.270;6.832;2023-07-31T07:02:20;7.85;;;4.45;;
47309;SDS011;33046;52.270;6.832;2023-07-31T07:04:28;7.25;;;3.53;;
47309;SDS011;33046;52.270;6.832;2023-07-31T07:06:35;5.93;;;3.15;;
47309;SDS011;33046;52.270;6.832;2023-07-31T07:08:42;6.78;;;2.90;;
47309;SDS011;33046;52.270;6.832;2023-07-31T07:10:49;5.90;;;2.65;;
47309;SDS011;33046;52.270;6.832;2023-07-31T07:12:56;6.85;;;2.88;;
47309;SDS011;33046;52.270;6.832;2023-07-31T07:15:03;8.32;;;2.88;;
47309;SDS011;33046;52.270;6.832;2023-07-31T07:17:11;5.00;;;2.42;;
47309;SDS011;33046;52.270;6.832;2023-07-31T07:19:17;4.40;;;3.05;;
47309;SDS011;33046;52.270;6.832;2023-07-31T07:21:26;5.53;;;2.35;;
47309;SDS011;33046;52.270;6.832;2023-07-31T07:23:33;6.38;;;1.90;;
47309;SDS011;33046;52.270;6.832;2023-07-31T07:25:40;5.78;;;2.67;;
47309;SDS011;33046;52.270;6.832;2023-07-31T07:27:47;3.45;;;1.70;;
47309;SDS011;33046;52.270;6.832;2023-07-31T07:29:54;5.07;;;2.38;;
47309;SDS011;33046;52.270;6.832;2023-07-31T07:32:01;4.75;;;2.17;;
47309;SDS011;33046;52.270;6.832;2023-07-31T07:34:08;2.83;;;1.80;;
47309;SDS011;33046;52.270;6.832;2023-07-31T07:36:15;6.82;;;2.15;;
47309;SDS011;33046;52.270;6.832;2023-07-31T07:38:23;4.85;;;2.50;;
47309;SDS011;33046;52.270;6.832;2023-07-31T07:40:30;4.18;;;1.63;;
47309;SDS011;33046;52.270;6.832;2023-07-31T07:42:37;4.40;;;1.80;;
47309;SDS011;33046;52.270;6.832;2023-07-31T07:44:44;3.47;;;1.55;;
47309;SDS011;33046;52.270;6.832;2023-07-31T07:46:51;3.70;;;2.30;;
47309;SDS011;33046;52.270;6.832;2023-07-31T07:48:58;4.97;;;1.70;;
47309;SDS011;33046;52.270;6.832;2023-07-31T07:51:05;3.55;;;1.70;;
47309;SDS011;33046;52.270;6.832;2023-07-31T07:53:12;4.55;;;1.63;;
47309;SDS011;33046;52.270;6.832;2023-07-31T07:55:20;2.40;;;1.30;;
47309;SDS011;33046;52.270;6.832;2023-07-31T07:57:27;6.10;;;1.83;;
47309;SDS011;33046;52.270;6.832;2023-07-31T07:59:34;3.50;;;1.67;;
47309;SDS011;33046;52.270;6.832;2023-07-31T08:01:40;2.63;;;1.48;;
47309;SDS011;33046;52.270;6.832;2023-07-31T08:03:47;1.80;;;1.45;;
47309;SDS011;33046;52.270;6.832;2023-07-31T08:05:57;2.45;;;1.13;;
47309;SDS011;33046;52.270;6.832;2023-07-31T08:08:04;2.72;;;1.30;;
47309;SDS011;33046;52.270;6.832;2023-07-31T08:10:11;2.55;;;1.50;;
47309;SDS011;33046;52.270;6.832;2023-07-31T08:12:19;2.22;;;1.02;;
47309;SDS011;33046;52.270;6.832;2023-07-31T08:14:26;1.63;;;0.90;;
47309;SDS011;33046;52.270;6.832;2023-07-31T08:16:33;2.53;;;0.75;;
47309;SDS011;33046;52.270;6.832;2023-07-31T08:18:40;1.67;;;0.98;;
47309;SDS011;33046;52.270;6.832;2023-07-31T08:20:47;1.20;;;0.70;;
47309;SDS011;33046;52.270;6.832;2023-07-31T08:22:54;1.98;;;0.90;;
47309;SDS011;33046;52.270;6.832;2023-07-31T08:25:01;2.42;;;0.80;;
47309;SDS011;33046;52.270;6.832;2023-07-31T08:27:07;1.27;;;0.70;;
47309;SDS011;33046;52.270;6.832;2023-07-31T08:29:16;1.05;;;0.60;;
47309;SDS011;33046;52.270;6.832;2023-07-31T08:31:22;1.30;;;0.70;;
47309;SDS011;33046;52.270;6.832;2023-07-31T08:33:29;1.23;;;0.52;;
47309;SDS011;33046;52.270;6.832;2023-07-31T08:35:36;1.65;;;0.70;;
47309;SDS011;33046;52.270;6.832;2023-07-31T08:37:43;0.60;;;0.50;;
47309;SDS011;33046;52.270;6.832;2023-07-31T08:39:50;0.88;;;0.60;;
47309;SDS011;33046;52.270;6.832;2023-07-31T08:41:57;0.98;;;0.55;;
47309;SDS011;33046;52.270;6.832;2023-07-31T08:44:04;1.10;;;0.70;;
47309;SDS011;33046;52.270;6.832;2023-07-31T08:46:14;1.45;;;0.50;;
47309;SDS011;33046;52.270;6.832;2023-07-31T08:48:22;0.50;;;0.40;;
47309;SDS011;33046;52.270;6.832;2023-07-31T08:50:29;1.58;;;0.88;;
47309;SDS011;33046;52.270;6.832;2023-07-31T08:52:36;0.50;;;0.50;;
47309;SDS011;33046;52.270;6.832;2023-07-31T08:54:43;1.25;;;0.60;;
47309;SDS011;33046;52.270;6.832;2023-07-31T08:56:50;0.50;;;0.30;;
47309;SDS011;33046;52.270;6.832;2023-07-31T08:58:59;0.50;;;0.30;;
47309;SDS011;33046;52.270;6.832;2023-07-31T09:01:09;0.68;;;0.50;;
47309;SDS011;33046;52.270;6.832;2023-07-31T09:03:19;0.80;;;0.40;;
47309;SDS011;33046;52.270;6.832;2023-07-31T09:05:28;0.75;;;0.40;;
47309;SDS011;33046;52.270;6.832;2023-07-31T09:07:37;0.50;;;0.40;;
47309;SDS011;33046;52.270;6.832;2023-07-31T09:09:45;0.85;;;0.40;;
47309;SDS011;33046;52.270;6.832;2023-07-31T09:11:52;0.98;;;0.50;;
47309;SDS011;33046;52.270;6.832;2023-07-31T09:13:59;0.85;;;0.50;;
47309;SDS011;33046;52.270;6.832;2023-07-31T09:16:08;1.80;;;0.60;;
47309;SDS011;33046;52.270;6.832;2023-07-31T09:18:15;0.63;;;0.40;;
47309;SDS011;33046;52.270;6.832;2023-07-31T09:20:23;0.52;;;0.50;;
47309;SDS011;33046;52.270;6.832;2023-07-31T09:22:31;0.60;;;0.40;;
47309;SDS011;33046;52.270;6.832;2023-07-31T09:24:40;1.33;;;0.50;;
47309;SDS011;33046;52.270;6.832;2023-07-31T09:26:47;0.50;;;0.30;;
47309;SDS011;33046;52.270;6.832;2023-07-31T09:28:59;1.33;;;0.50;;
47309;SDS011;33046;52.270;6.832;2023-07-31T09:31:07;1.50;;;0.40;;
47309;SDS011;33046;52.270;6.832;2023-07-31T09:33:14;1.20;;;0.52;;
47309;SDS011;33046;52.270;6.832;2023-07-31T09:35:22;0.40;;;0.40;;
47309;SDS011;33046;52.270;6.832;2023-07-31T09:37:34;0.65;;;0.50;;
47309;SDS011;33046;52.270;6.832;2023-07-31T09:39:47;1.17;;;0.50;;
47309;SDS011;33046;52.270;6.832;2023-07-31T09:41:55;0.60;;;0.40;;
47309;SDS011;33046;52.270;6.832;2023-07-31T09:44:02;0.57;;;0.50;;
47309;SDS011;33046;52.270;6.832;2023-07-31T09:46:13;0.93;;;0.50;;
47309;SDS011;33046;52.270;6.832;2023-07-31T09:48:20;0.85;;;0.50;;
47309;SDS011;33046;52.270;6.832;2023-07-31T09:50:30;0.60;;;0.60;;
47309;SDS011;33046;52.270;6.832;2023-07-31T09:52:38;0.52;;;0.52;;
47309;SDS011;33046;52.270;6.832;2023-07-31T09:54:45;1.27;;;0.63;;
47309;SDS011;33046;52.270;6.832;2023-07-31T09:56:52;1.00;;;0.63;;
47309;SDS011;33046;52.270;6.832;2023-07-31T09:59:00;0.88;;;0.60;;
47309;SDS011;33046;52.270;6.832;2023-07-31T10:01:08;0.75;;;0.50;;
47309;SDS011;33046;52.270;6.832;2023-07-31T10:03:15;1.42;;;0.82;;
47309;SDS011;33046;52.270;6.832;2023-07-31T10:05:22;0.88;;;0.70;;
47309;SDS011;33046;52.270;6.832;2023-07-31T10:07:32;0.90;;;0.70;;
47309;SDS011;33046;52.270;6.832;2023-07-31T10:11:51;0.93;;;0.70;;
47309;SDS011;33046;52.270;6.832;2023-07-31T10:14:02;0.98;;;0.55;;
47309;SDS011;33046;52.270;6.832;2023-07-31T10:16:11;0.65;;;0.60;;
47309;SDS011;33046;52.270;6.832;2023-07-31T10:18:19;1.15;;;0.85;;
47309;SDS011;33046;52.270;6.832;2023-07-31T10:20:26;1.65;;;0.80;;
47309;SDS011;33046;52.270;6.832;2023-07-31T10:22:35;0.90;;;0.70;;
47309;SDS011;33046;52.270;6.832;2023-07-31T10:24:43;0.70;;;0.50;;
47309;SDS011;33046;52.270;6.832;2023-07-31T10:26:51;0.60;;;0.60;;
47309;SDS011;33046;52.270;6.832;2023-07-31T10:28:59;1.20;;;0.90;;
47309;SDS011;33046;52.270;6.832;2023-07-31T10:31:06;0.77;;;0.68;;
47309;SDS011;33046;52.270;6.832;2023-07-31T10:33:13;0.90;;;0.70;;
47309;SDS011;33046;52.270;6.832;2023-07-31T10:35:21;1.02;;;0.80;;
47309;SDS011;33046;52.270;6.832;2023-07-31T10:37:29;1.65;;;0.82;;
47309;SDS011;33046;52.270;6.832;2023-07-31T10:39:45;1.00;;;0.80;;
47309;SDS011;33046;52.270;6.832;2023-07-31T10:42:09;2.00;;;1.00;;
47309;SDS011;33046;52.270;6.832;2023-07-31T10:44:17;1.80;;;0.90;;
47309;SDS011;33046;52.270;6.832;2023-07-31T10:46:24;1.08;;;0.90;;
47309;SDS011;33046;52.270;6.832;2023-07-31T10:48:32;1.20;;;1.10;;
47309;SDS011;33046;52.270;6.832;2023-07-31T10:50:46;1.10;;;0.88;;
47309;SDS011;33046;52.270;6.832;2023-07-31T10:52:55;1.67;;;1.00;;
47309;SDS011;33046;52.270;6.832;2023-07-31T10:55:24;2.65;;;1.10;;
47309;SDS011;33046;52.270;6.832;2023-07-31T10:57:33;1.48;;;1.20;;
47309;SDS011;33046;52.270;6.832;2023-07-31T10:59:41;1.50;;;1.35;;
47309;SDS011;33046;52.270;6.832;2023-07-31T11:01:52;2.22;;;1.60;;
47309;SDS011;33046;52.270;6.832;2023-07-31T11:04:00;1.92;;;1.65;;
47309;SDS011;33046;52.270;6.832;2023-07-31T11:06:17;2.00;;;1.60;;
47309;SDS011;33046;52.270;6.832;2023-07-31T11:08:25;1.35;;;1.23;;
47309;SDS011;33046;52.270;6.832;2023-07-31T11:10:33;1.50;;;1.25;;
47309;SDS011;33046;52.270;6.832;2023-07-31T11:12:40;2.13;;;1.40;;
47309;SDS011;33046;52.270;6.832;2023-07-31T11:14:53;1.95;;;1.52;;
47309;SDS011;33046;52.270;6.832;2023-07-31T11:17:05;2.03;;;1.58;;
47309;SDS011;33046;52.270;6.832;2023-07-31T11:19:12;3.45;;;1.88;;
47309;SDS011;33046;52.270;6.832;2023-07-31T11:21:20;3.03;;;1.70;;
47309;SDS011;33046;52.270;6.832;2023-07-31T11:23:28;2.58;;;2.17;;
47309;SDS011;33046;52.270;6.832;2023-07-31T11:25:38;2.28;;;2.05;;
47309;SDS011;33046;52.270;6.832;2023-07-31T11:27:46;4.60;;;2.28;;
47309;SDS011;33046;52.270;6.832;2023-07-31T11:29:52;2.55;;;2.20;;
47309;SDS011;33046;52.270;6.832;2023-07-31T11:31:59;3.85;;;3.13;;
47309;SDS011;33046;52.270;6.832;2023-07-31T11:34:06;4.03;;;3.03;;
47309;SDS011;33046;52.270;6.832;2023-07-31T11:36:14;3.47;;;3.17;;
47309;SDS011;33046;52.270;6.832;2023-07-31T11:38:21;3.78;;;3.22;;
47309;SDS011;33046;52.270;6.832;2023-07-31T11:40:28;4.85;;;4.35;;
47309;SDS011;33046;52.270;6.832;2023-07-31T11:42:38;4.30;;;3.92;;
47309;SDS011;33046;52.270;6.832;2023-07-31T11:44:45;4.78;;;3.83;;
47309;SDS011;33046;52.270;6.832;2023-07-31T11:46:52;4.65;;;3.42;;
47309;SDS011;33046;52.270;6.832;2023-07-31T11:48:59;3.70;;;2.85;;
47309;SDS011;33046;52.270;6.832;2023-07-31T11:51:07;5.47;;;3.78;;
47309;SDS011;33046;52.270;6.832;2023-07-31T11:53:17;3.08;;;2.78;;
47309;SDS011;33046;52.270;6.832;2023-07-31T11:55:28;4.68;;;3.38;;
47309;SDS011;33046;52.270;6.832;2023-07-31T11:57:35;4.35;;;2.70;;
47309;SDS011;33046;52.270;6.832;2023-07-31T11:59:45;5.53;;;3.08;;
47309;SDS011;33046;52.270;6.832;2023-07-31T12:01:52;5.30;;;3.30;;
47309;SDS011;33046;52.270;6.832;2023-07-31T12:03:59;3.65;;;3.35;;
47309;SDS011;33046;52.270;6.832;2023-07-31T12:06:06;6.20;;;3.55;;
47309;SDS011;33046;52.270;6.832;2023-07-31T12:08:14;3.13;;;2.78;;
47309;SDS011;33046;52.270;6.832;2023-07-31T12:10:24;4.35;;;3.45;;
47309;SDS011;33046;52.270;6.832;2023-07-31T12:12:32;5.78;;;4.15;;
47309;SDS011;33046;52.270;6.832;2023-07-31T12:14:41;4.78;;;3.05;;
47309;SDS011;33046;52.270;6.832;2023-07-31T12:16:49;5.07;;;3.10;;
47309;SDS011;33046;52.270;6.832;2023-07-31T12:19:00;4.97;;;3.55;;
47309;SDS011;33046;52.270;6.832;2023-07-31T12:21:07;5.10;;;3.30;;
47309;SDS011;33046;52.270;6.832;2023-07-31T12:23:15;5.82;;;3.13;;
47309;SDS011;33046;52.270;6.832;2023-07-31T12:25:23;4.90;;;3.13;;
47309;SDS011;33046;52.270;6.832;2023-07-31T12:27:34;5.68;;;2.35;;
47309;SDS011;33046;52.270;6.832;2023-07-31T12:29:41;4.35;;;2.50;;
47309;SDS011;33046;52.270;6.832;2023-07-31T12:31:50;4.13;;;2.47;;
47309;SDS011;33046;52.270;6.832;2023-07-31T12:33:57;3.05;;;2.25;;
47309;SDS011;33046;52.270;6.832;2023-07-31T12:36:04;3.95;;;1.85;;
47309;SDS011;33046;52.270;6.832;2023-07-31T12:38:14;5.10;;;2.13;;
47309;SDS011;33046;52.270;6.832;2023-07-31T12:40:20;2.22;;;1.85;;
47309;SDS011;33046;52.270;6.832;2023-07-31T12:42:30;2.72;;;1.90;;
47309;SDS011;33046;52.270;6.832;2023-07-31T12:44:38;5.30;;;2.97;;
47309;SDS011;33046;52.270;6.832;2023-07-31T12:46:45;2.92;;;2.17;;
47309;SDS011;33046;52.270;6.832;2023-07-31T12:48:53;3.63;;;2.10;;
47309;SDS011;33046;52.270;6.832;2023-07-31T12:51:00;4.50;;;2.90;;
47309;SDS011;33046;52.270;6.832;2023-07-31T12:53:08;3.83;;;2.78;;